createdAt,value
2018-12-14T00:00:52.479Z,56.50
2018-12-14T00:03:20.771Z,56.80
2018-12-14T00:05:50.219Z,56.80
2018-12-14T00:08:18.470Z,56.40
2018-12-14T00:10:47.123Z,56.50
2018-12-14T00:13:15.382Z,56.70
2018-12-14T00:15:43.831Z,56.80
2018-12-14T00:18:12.164Z,56.80
2018-12-14T00:20:40.419Z,56.80
2018-12-14T00:23:08.679Z,57.10
2018-12-14T00:25:36.975Z,57.10
2018-12-14T00:28:05.255Z,56.90
2018-12-14T00:30:33.502Z,56.90
2018-12-14T00:33:02.145Z,57.10
2018-12-14T00:35:30.579Z,56.90
2018-12-14T00:37:58.846Z,56.90
2018-12-14T00:40:27.119Z,56.80
2018-12-14T00:42:55.381Z,56.80
2018-12-14T00:45:23.634Z,57.00
2018-12-14T00:47:57.867Z,56.90
2018-12-14T00:50:26.128Z,56.80
2018-12-14T00:52:54.474Z,57.60
2018-12-14T00:55:23.107Z,57.10
2018-12-14T00:57:51.439Z,57.10
2018-12-14T01:00:19.694Z,57.10
2018-12-14T01:02:47.987Z,57.00
2018-12-14T01:05:16.246Z,57.20
2018-12-14T01:07:44.574Z,56.80
2018-12-14T01:10:12.968Z,56.90
2018-12-14T01:12:41.203Z,56.90
2018-12-14T01:15:09.459Z,56.80
2018-12-14T01:17:38.002Z,56.70
2018-12-14T01:20:08.828Z,56.60
2018-12-14T01:22:37.071Z,56.50
2018-12-14T01:25:05.435Z,56.80
2018-12-14T01:27:33.699Z,56.50
2018-12-14T01:30:01.957Z,56.50
2018-12-14T01:32:30.243Z,56.60
2018-12-14T01:34:58.522Z,56.80
2018-12-14T01:37:26.777Z,56.70
2018-12-14T01:39:55.442Z,56.70
2018-12-14T01:42:23.698Z,56.80
2018-12-14T01:44:51.955Z,56.40
2018-12-14T01:47:21.463Z,56.30
2018-12-14T01:49:49.741Z,56.70
2018-12-14T01:52:18.354Z,56.80
2018-12-14T01:54:47.026Z,56.90
2018-12-14T01:57:15.368Z,57.10
2018-12-14T01:59:43.643Z,57.00
2018-12-14T02:02:12.811Z,57.00
2018-12-14T02:04:41.058Z,57.40
2018-12-14T02:07:09.387Z,56.80
2018-12-14T02:09:37.686Z,56.70
2018-12-14T02:12:11.283Z,56.90
2018-12-14T02:14:36.429Z,57.00
2018-12-14T02:17:04.714Z,56.80
2018-12-14T02:19:33.159Z,56.80
2018-12-14T02:22:01.410Z,56.90
2018-12-14T02:24:29.746Z,57.10
2018-12-14T02:26:57.999Z,56.90
2018-12-14T02:29:26.263Z,56.60
2018-12-14T02:31:54.573Z,56.70
2018-12-14T02:34:22.830Z,56.80
2018-12-14T02:36:51.091Z,56.90
2018-12-14T02:39:19.371Z,57.00
2018-12-14T02:41:47.635Z,56.70
2018-12-14T02:44:15.994Z,56.90
2018-12-14T02:46:44.343Z,57.00
2018-12-14T02:49:12.604Z,57.00
2018-12-14T02:51:40.856Z,56.80
2018-12-14T02:54:09.147Z,56.90
2018-12-14T02:56:37.418Z,57.10
2018-12-14T02:59:05.667Z,57.00
2018-12-14T03:01:33.981Z,56.70
2018-12-14T03:04:02.314Z,56.80
2018-12-14T03:06:30.572Z,56.60
2018-12-14T03:08:59.239Z,56.60
2018-12-14T03:11:27.489Z,56.70
2018-12-14T03:13:55.745Z,56.60
2018-12-14T03:16:24.023Z,56.90
2018-12-14T03:18:52.290Z,57.00
2018-12-14T03:21:20.659Z,56.90
2018-12-14T03:23:48.948Z,56.90
2018-12-14T03:26:17.211Z,56.80
2018-12-14T03:28:45.608Z,57.00
2018-12-14T03:31:13.965Z,56.90
2018-12-14T03:33:42.303Z,56.80
2018-12-14T03:36:10.643Z,57.00
2018-12-14T03:38:38.935Z,56.80
2018-12-14T03:41:07.278Z,57.00
2018-12-14T03:43:35.528Z,56.90
2018-12-14T03:46:03.811Z,57.00
2018-12-14T03:48:32.067Z,56.80
2018-12-14T03:51:00.339Z,56.80
2018-12-14T03:53:28.859Z,56.60
2018-12-14T03:55:57.111Z,57.00
2018-12-14T03:58:25.524Z,56.90
2018-12-14T04:00:53.838Z,57.00
2018-12-14T04:03:22.086Z,57.10
2018-12-14T04:05:50.347Z,57.20
2018-12-14T04:08:18.641Z,57.00
2018-12-14T04:10:47.129Z,57.00
2018-12-14T04:13:15.382Z,57.10
2018-12-14T04:15:44.636Z,57.20
2018-12-14T04:18:13.268Z,57.10
2018-12-14T04:20:41.613Z,57.00
2018-12-14T04:23:09.994Z,56.80
2018-12-14T04:25:38.257Z,56.80
2018-12-14T04:28:06.525Z,56.80
2018-12-14T04:30:34.916Z,56.90
2018-12-14T04:33:03.297Z,56.90
2018-12-14T04:35:31.678Z,56.90
2018-12-14T04:38:00.603Z,56.90
2018-12-14T04:40:28.850Z,56.90
2018-12-14T04:42:57.115Z,57.10
2018-12-14T04:45:25.405Z,56.90
2018-12-14T04:47:53.658Z,56.90
2018-12-14T04:50:21.935Z,56.80
2018-12-14T04:52:50.245Z,56.50
2018-12-14T04:55:18.494Z,56.50
2018-12-14T04:57:46.756Z,56.50
2018-12-14T05:00:15.403Z,56.50
2018-12-14T05:02:43.700Z,56.40
2018-12-14T05:05:11.954Z,56.60
2018-12-14T05:07:40.231Z,56.80
2018-12-14T05:10:08.562Z,56.70
2018-12-14T05:12:36.815Z,56.20
2018-12-14T05:15:06.366Z,56.10
2018-12-14T05:17:35.891Z,56.10
2018-12-14T05:20:05.212Z,56.10
2018-12-14T05:22:33.567Z,56.30
2018-12-14T05:25:02.214Z,56.30
2018-12-14T05:27:30.463Z,56.40
2018-12-14T05:29:59.143Z,56.40
2018-12-14T05:32:27.401Z,56.30
2018-12-14T05:34:55.706Z,56.20
2018-12-14T05:37:23.982Z,56.30
2018-12-14T05:39:52.242Z,56.30
2018-12-14T05:42:20.736Z,56.40
2018-12-14T05:44:49.401Z,56.40
2018-12-14T05:47:17.676Z,56.40
2018-12-14T05:49:45.926Z,56.30
2018-12-14T05:52:14.214Z,56.20
2018-12-14T05:54:42.614Z,56.20
2018-12-14T05:57:10.847Z,56.30
2018-12-14T05:59:39.138Z,55.80
2018-12-14T06:02:07.390Z,55.90
2018-12-14T06:04:35.643Z,56.10
2018-12-14T06:07:04.301Z,56.10
2018-12-14T06:09:32.552Z,56.20
2018-12-14T06:12:02.775Z,56.20
2018-12-14T06:14:31.051Z,56.00
2018-12-14T06:16:59.314Z,56.00
2018-12-14T06:19:27.572Z,55.80
2018-12-14T06:21:55.855Z,55.70
2018-12-14T06:24:24.112Z,55.70
2018-12-14T06:26:52.486Z,55.80
2018-12-14T06:29:20.835Z,56.20
2018-12-14T06:31:49.090Z,56.10
2018-12-14T06:34:17.354Z,56.30
2018-12-14T06:36:45.651Z,56.10
2018-12-14T06:39:14.684Z,56.00
2018-12-14T06:41:43.325Z,55.90
2018-12-14T06:44:11.602Z,55.80
2018-12-14T06:46:39.924Z,55.90
2018-12-14T06:49:08.189Z,55.90
2018-12-14T06:51:37.572Z,56.30
2018-12-14T06:54:06.039Z,55.90
2018-12-14T06:56:34.298Z,55.80
2018-12-14T06:59:02.644Z,55.90
2018-12-14T07:01:30.994Z,55.80
2018-12-14T07:03:59.298Z,55.80
2018-12-14T07:06:27.580Z,56.00
2018-12-14T07:08:55.834Z,56.10
2018-12-14T07:11:24.102Z,56.40
2018-12-14T07:13:52.436Z,55.80
2018-12-14T07:16:20.782Z,55.70
2018-12-14T07:18:49.168Z,55.80
2018-12-14T07:21:17.522Z,55.50
2018-12-14T07:23:45.771Z,55.90
2018-12-14T07:26:14.052Z,56.10
2018-12-14T07:28:42.459Z,56.10
2018-12-14T07:31:10.706Z,56.00
2018-12-14T07:33:39.131Z,56.00
2018-12-14T07:36:07.471Z,55.70
2018-12-14T07:38:35.719Z,55.60
2018-12-14T07:41:03.976Z,55.40
2018-12-14T07:43:32.266Z,55.20
2018-12-14T07:46:00.603Z,55.40
2018-12-14T07:48:28.902Z,55.30
2018-12-14T07:50:57.326Z,55.20
2018-12-14T07:53:25.603Z,55.40
2018-12-14T07:55:54.112Z,55.20
2018-12-14T07:58:22.697Z,55.20
2018-12-14T08:00:50.951Z,54.80
2018-12-14T08:03:19.210Z,54.90
2018-12-14T08:05:47.493Z,55.30
2018-12-14T08:08:15.751Z,55.50
2018-12-14T08:10:44.201Z,55.10
2018-12-14T08:13:12.488Z,54.80
2018-12-14T08:15:40.831Z,55.30
2018-12-14T08:18:09.086Z,54.90
2018-12-14T08:20:37.708Z,55.30
2018-12-14T08:23:05.988Z,55.50
2018-12-14T08:25:34.218Z,55.40
2018-12-14T08:28:02.514Z,55.60
2018-12-14T08:30:31.037Z,55.40
2018-12-14T08:32:59.299Z,55.10
2018-12-14T08:35:27.637Z,55.30
2018-12-14T08:37:55.891Z,55.40
2018-12-14T08:40:24.290Z,55.40
2018-12-14T08:42:52.916Z,55.30
2018-12-14T08:45:21.167Z,55.30
2018-12-14T08:47:49.494Z,55.20
2018-12-14T08:50:18.059Z,55.40
2018-12-14T08:52:46.304Z,55.40
2018-12-14T08:55:14.556Z,55.70
2018-12-14T08:57:42.843Z,55.70
2018-12-14T09:00:11.189Z,55.60
2018-12-14T09:02:39.439Z,55.70
2018-12-14T09:05:07.935Z,55.40
2018-12-14T09:07:36.506Z,55.60
2018-12-14T09:10:05.815Z,56.00
2018-12-14T09:12:34.213Z,55.20
2018-12-14T09:15:02.471Z,55.30
2018-12-14T09:17:30.945Z,55.30
2018-12-14T09:19:59.582Z,55.30
2018-12-14T09:22:29.143Z,55.40
2018-12-14T09:24:57.413Z,55.30
2018-12-14T09:27:25.894Z,54.90
2018-12-14T09:29:54.142Z,55.30
2018-12-14T09:32:23.243Z,55.20
2018-12-14T09:34:51.614Z,55.00
2018-12-14T09:37:19.868Z,54.80
2018-12-14T09:39:48.147Z,55.10
2018-12-14T09:42:16.438Z,55.50
2018-12-14T09:44:44.698Z,55.40
2018-12-14T09:47:12.964Z,55.50
2018-12-14T09:49:41.459Z,55.20
2018-12-14T09:52:09.839Z,55.30
2018-12-14T09:54:38.089Z,55.10
2018-12-14T09:57:06.371Z,55.30
2018-12-14T09:59:34.619Z,55.20
2018-12-14T10:02:02.875Z,55.20
2018-12-14T10:04:31.159Z,54.90
2018-12-14T10:06:59.415Z,54.40
2018-12-14T10:09:27.682Z,54.60
2018-12-14T10:11:56.043Z,54.40
2018-12-14T10:14:24.298Z,54.50
2018-12-14T10:16:52.563Z,54.60
2018-12-14T10:19:20.860Z,54.30
2018-12-14T10:21:49.131Z,54.70
2018-12-14T10:24:17.430Z,54.90
2018-12-14T10:26:45.784Z,54.80
2018-12-14T10:29:14.048Z,55.00
2018-12-14T10:31:42.298Z,55.00
2018-12-14T10:34:11.054Z,55.20
2018-12-14T10:36:39.311Z,55.10
2018-12-14T10:39:07.647Z,54.70
2018-12-14T10:41:36.150Z,54.60
2018-12-14T10:44:07.466Z,54.50
2018-12-14T10:46:34.619Z,55.30
2018-12-14T10:49:02.915Z,53.90
2018-12-14T10:51:31.429Z,53.80
2018-12-14T10:53:59.697Z,54.20
2018-12-14T10:56:28.235Z,54.10
2018-12-14T10:58:56.508Z,54.10
2018-12-14T11:01:30.532Z,54.10
2018-12-14T11:03:58.783Z,54.00
2018-12-14T11:06:27.075Z,53.90
2018-12-14T11:08:55.425Z,53.80
2018-12-14T11:11:23.707Z,53.90
2018-12-14T11:13:51.966Z,53.70
2018-12-14T11:16:20.303Z,53.50
2018-12-14T11:18:48.593Z,53.70
2018-12-14T11:21:17.496Z,53.60
2018-12-14T11:23:45.863Z,53.40
2018-12-14T11:26:14.104Z,53.00
2018-12-14T11:28:42.370Z,53.20
2018-12-14T11:31:10.680Z,53.20
2018-12-14T11:33:38.942Z,53.20
2018-12-14T11:36:07.458Z,53.00
2018-12-14T11:38:36.068Z,53.50
2018-12-14T11:41:04.299Z,53.50
2018-12-14T11:43:32.579Z,53.50
2018-12-14T11:46:00.887Z,53.60
2018-12-14T11:48:29.134Z,53.50
2018-12-14T11:50:57.391Z,53.30
2018-12-14T11:53:25.679Z,53.30
2018-12-14T11:55:53.944Z,53.70
2018-12-14T11:58:22.196Z,53.70
2018-12-14T12:00:50.634Z,53.00
2018-12-14T12:03:18.903Z,53.00
2018-12-14T12:05:47.295Z,53.20
2018-12-14T12:08:16.071Z,53.50
2018-12-14T12:10:44.379Z,53.70
2018-12-14T12:13:12.666Z,53.20
2018-12-14T12:15:41.009Z,52.90
2018-12-14T12:18:09.243Z,53.50
2018-12-14T12:20:37.506Z,53.10
2018-12-14T12:23:06.050Z,52.90
2018-12-14T12:25:34.320Z,53.10
2018-12-14T12:28:02.576Z,52.80
2018-12-14T12:30:30.860Z,53.20
2018-12-14T12:32:59.154Z,53.30
2018-12-14T12:35:27.391Z,53.30
2018-12-14T12:37:56.031Z,53.00
2018-12-14T12:40:24.279Z,53.00
2018-12-14T12:42:52.543Z,52.80
2018-12-14T12:45:21.446Z,52.40
2018-12-14T12:47:49.702Z,52.60
2018-12-14T12:50:17.960Z,52.70
2018-12-14T12:52:46.264Z,52.50
2018-12-14T12:55:14.511Z,52.70
2018-12-14T12:57:42.772Z,52.80
2018-12-14T13:00:11.408Z,53.40
2018-12-14T13:02:39.659Z,52.80
2018-12-14T13:05:07.995Z,52.90
2018-12-14T13:07:36.571Z,52.80
2018-12-14T13:10:04.988Z,53.10
2018-12-14T13:12:34.462Z,53.20
2018-12-14T13:15:02.831Z,53.10
2018-12-14T13:17:31.091Z,52.80
2018-12-14T13:19:59.340Z,53.10
2018-12-14T13:22:27.659Z,53.10
2018-12-14T13:24:55.918Z,53.20
2018-12-14T13:27:24.182Z,53.30
2018-12-14T13:29:52.902Z,53.20
2018-12-14T13:32:21.154Z,53.50
2018-12-14T13:34:49.411Z,53.10
2018-12-14T13:37:17.698Z,53.10
2018-12-14T13:39:46.660Z,53.00
2018-12-14T13:42:14.911Z,53.10
2018-12-14T13:44:46.542Z,53.00
2018-12-14T13:47:13.831Z,53.00
2018-12-14T13:49:42.089Z,53.30
2018-12-14T13:52:10.774Z,53.10
2018-12-14T13:54:39.030Z,53.30
2018-12-14T13:57:07.283Z,52.90
2018-12-14T13:59:35.595Z,53.40
2018-12-14T14:02:03.916Z,53.50
2018-12-14T14:04:32.418Z,53.40
2018-12-14T14:07:00.683Z,53.20
2018-12-14T14:09:29.116Z,53.10
2018-12-14T14:11:57.389Z,53.00
2018-12-14T14:14:25.741Z,52.90
2018-12-14T14:16:54.383Z,53.00
2018-12-14T14:19:23.912Z,53.00
2018-12-14T14:21:52.207Z,53.30
2018-12-14T14:24:20.545Z,52.80
2018-12-14T14:26:48.807Z,53.20
2018-12-14T14:29:17.086Z,53.20
2018-12-14T14:31:45.350Z,53.40
2018-12-14T14:34:13.599Z,53.50
2018-12-14T14:36:41.994Z,53.20
2018-12-14T14:39:10.369Z,53.20
2018-12-14T14:41:38.886Z,53.20
2018-12-14T14:44:07.179Z,53.10
2018-12-14T14:46:35.428Z,53.70
2018-12-14T14:49:03.776Z,53.30
2018-12-14T14:51:32.527Z,53.90
2018-12-14T14:54:00.971Z,53.40
2018-12-14T14:56:29.215Z,53.20
2018-12-14T14:58:58.139Z,53.20
2018-12-14T15:01:26.882Z,53.30
2018-12-14T15:03:55.151Z,53.10
2018-12-14T15:06:23.434Z,53.20
2018-12-14T15:08:52.170Z,53.20
2018-12-14T15:11:20.516Z,53.20
2018-12-14T15:13:48.978Z,53.20
2018-12-14T15:16:17.410Z,53.40
2018-12-14T15:18:45.675Z,53.50
2018-12-14T15:21:14.009Z,53.30
2018-12-14T15:23:42.446Z,53.30
2018-12-14T15:26:10.694Z,53.60
2018-12-14T15:28:38.970Z,53.70
2018-12-14T15:31:07.221Z,53.70
2018-12-14T15:33:35.491Z,53.70
2018-12-14T15:36:03.751Z,53.80
2018-12-14T15:38:32.003Z,53.50
2018-12-14T15:41:00.272Z,53.60
2018-12-14T15:43:29.368Z,53.70
2018-12-14T15:45:57.872Z,53.60
2018-12-14T15:48:26.107Z,53.40
2018-12-14T15:50:54.391Z,53.50
2018-12-14T15:53:22.996Z,53.40
2018-12-14T15:55:51.240Z,53.60
2018-12-14T15:58:19.523Z,53.80
2018-12-14T16:00:47.947Z,53.80
2018-12-14T16:03:16.208Z,53.80
2018-12-14T16:05:44.667Z,53.90
2018-12-14T16:08:14.008Z,53.70
2018-12-14T16:10:42.265Z,53.60
2018-12-14T16:13:10.685Z,53.70
2018-12-14T16:15:38.995Z,53.60
2018-12-14T16:18:07.250Z,53.60
2018-12-14T16:20:35.529Z,54.50
2018-12-14T16:23:04.055Z,53.70
2018-12-14T16:25:32.295Z,53.60
2018-12-14T16:28:00.838Z,53.60
2018-12-14T16:30:29.095Z,53.60
2018-12-14T16:32:57.383Z,53.60
2018-12-14T16:35:25.671Z,53.70
2018-12-14T16:37:54.132Z,53.80
2018-12-14T16:40:22.375Z,53.80
2018-12-14T16:42:50.727Z,53.70
2018-12-14T16:45:19.142Z,53.70
2018-12-14T16:47:47.419Z,53.90
2018-12-14T16:50:16.056Z,53.60
2018-12-14T16:52:44.315Z,53.50
2018-12-14T16:55:12.576Z,53.60
2018-12-14T16:57:40.879Z,53.60
2018-12-14T17:00:09.312Z,53.80
2018-12-14T17:02:37.563Z,53.90
2018-12-14T17:05:07.243Z,53.80
2018-12-14T17:07:35.760Z,54.10
2018-12-14T17:10:05.478Z,54.00
2018-12-14T17:12:33.810Z,54.10
2018-12-14T17:15:02.087Z,53.90
2018-12-14T17:17:30.344Z,55.00
2018-12-14T17:19:58.650Z,53.50
2018-12-14T17:22:29.378Z,53.90
2018-12-14T17:24:57.631Z,53.40
2018-12-14T17:27:27.074Z,53.40
2018-12-14T17:29:55.363Z,53.50
2018-12-14T17:32:23.822Z,53.60
2018-12-14T17:34:52.277Z,53.60
2018-12-14T17:37:20.533Z,53.80
2018-12-14T17:39:48.953Z,53.80
2018-12-14T17:42:17.319Z,53.60
2018-12-14T17:44:45.715Z,53.70
2018-12-14T17:47:18.118Z,53.70
2018-12-14T17:49:46.479Z,53.80
2018-12-14T17:52:14.738Z,53.80
2018-12-14T17:54:43.719Z,54.00
2018-12-14T17:57:11.961Z,54.10
2018-12-14T17:59:40.287Z,53.90
2018-12-14T18:02:08.694Z,54.10
2018-12-14T18:04:37.009Z,55.10
2018-12-14T18:07:05.427Z,54.20
2018-12-14T18:09:34.211Z,54.10
2018-12-14T18:12:02.573Z,54.20
2018-12-14T18:14:30.822Z,53.80
2018-12-14T18:17:01.182Z,54.20
2018-12-14T18:19:30.406Z,54.00
2018-12-14T18:21:58.803Z,54.00
2018-12-14T18:24:34.206Z,54.20
2018-12-14T18:27:02.770Z,54.40
2018-12-14T18:29:31.014Z,54.50
2018-12-14T18:32:03.735Z,54.30
2018-12-14T18:34:32.956Z,54.30
2018-12-14T18:37:01.334Z,54.50
2018-12-14T18:39:29.901Z,54.30
2018-12-14T18:41:58.130Z,54.30
2018-12-14T18:44:26.491Z,54.30
2018-12-14T18:46:55.069Z,54.30
2018-12-14T18:49:23.355Z,54.20
2018-12-14T18:51:51.680Z,54.10
2018-12-14T18:54:20.381Z,54.30
2018-12-14T18:56:48.679Z,54.20
2018-12-14T18:59:17.111Z,54.20
2018-12-14T19:01:45.459Z,54.70
2018-12-14T19:04:13.817Z,54.50
2018-12-14T19:06:42.078Z,54.40
2018-12-14T19:09:10.352Z,54.40
2018-12-14T19:11:39.570Z,54.50
2018-12-14T19:14:07.946Z,54.40
2018-12-14T19:16:36.408Z,54.20
2018-12-14T19:19:05.623Z,54.20
2018-12-14T19:21:33.924Z,54.30
2018-12-14T19:24:02.225Z,54.10
2018-12-14T19:26:31.700Z,54.20
2018-12-14T19:29:02.113Z,54.30
2018-12-14T19:31:30.571Z,55.00
2018-12-14T19:33:58.842Z,54.50
2018-12-14T19:36:27.103Z,54.50
2018-12-14T19:38:56.023Z,54.40
2018-12-14T19:41:25.378Z,54.60
2018-12-14T19:43:53.639Z,54.40
2018-12-14T19:46:21.924Z,54.40
2018-12-14T19:48:50.228Z,54.40
2018-12-14T19:51:18.483Z,54.30
2018-12-14T19:53:46.766Z,54.40
2018-12-14T19:56:15.023Z,54.40
2018-12-14T19:58:44.307Z,54.50
2018-12-14T20:01:12.640Z,54.50
2018-12-14T20:03:41.069Z,54.60
2018-12-14T20:06:09.443Z,54.50
2018-12-14T20:08:37.726Z,54.80
2018-12-14T20:11:06.202Z,54.70
2018-12-14T20:13:34.588Z,54.70
2018-12-14T20:16:02.883Z,54.70
2018-12-14T20:18:31.140Z,54.70
2018-12-14T20:20:59.399Z,54.70
2018-12-14T20:23:27.745Z,54.70
2018-12-14T20:25:56.049Z,54.80
2018-12-14T20:28:24.279Z,54.80
2018-12-14T20:30:52.579Z,55.20
2018-12-14T20:33:21.063Z,54.80
2018-12-14T20:35:49.406Z,54.70
2018-12-14T20:38:17.763Z,54.70
2018-12-14T20:40:46.134Z,54.90
2018-12-14T20:43:14.417Z,54.90
2018-12-14T20:45:42.984Z,54.90
2018-12-14T20:48:11.359Z,54.70
2018-12-14T20:50:40.618Z,54.90
2018-12-14T20:53:08.976Z,54.60
2018-12-14T20:55:37.240Z,54.70
2018-12-14T20:58:05.491Z,54.80
2018-12-14T21:00:33.768Z,55.20
2018-12-14T21:03:02.018Z,55.10
2018-12-14T21:05:30.423Z,55.00
2018-12-14T21:07:59.004Z,55.10
2018-12-14T21:10:27.311Z,55.00
2018-12-14T21:12:55.580Z,55.10
2018-12-14T21:15:23.867Z,55.40
2018-12-14T21:17:52.118Z,55.20
2018-12-14T21:20:21.127Z,55.20
2018-12-14T21:22:49.439Z,55.30
2018-12-14T21:25:17.711Z,55.20
2018-12-14T21:27:46.298Z,55.20
2018-12-14T21:30:14.789Z,55.30
2018-12-14T21:32:43.063Z,55.40
2018-12-14T21:35:11.391Z,55.30
2018-12-14T21:37:39.746Z,55.40
2018-12-14T21:40:08.091Z,55.30
2018-12-14T21:42:36.349Z,55.40
2018-12-14T21:45:05.995Z,55.30
2018-12-14T21:47:34.255Z,55.10
2018-12-14T21:50:04.556Z,55.00
2018-12-14T21:52:33.064Z,55.10
2018-12-14T21:55:01.615Z,55.20
2018-12-14T21:57:30.379Z,55.00
2018-12-14T21:59:58.670Z,54.90
2018-12-14T22:02:27.158Z,55.00
2018-12-14T22:04:55.413Z,54.80
2018-12-14T22:07:23.691Z,54.70
2018-12-14T22:09:51.975Z,54.60
2018-12-14T22:12:20.219Z,54.20
2018-12-14T22:14:48.786Z,54.40
2018-12-14T22:17:17.030Z,54.60
2018-12-14T22:19:45.283Z,54.50
2018-12-14T22:22:13.579Z,54.70
2018-12-14T22:24:41.835Z,54.50
2018-12-14T22:27:10.096Z,54.40
2018-12-14T22:29:38.373Z,54.60
2018-12-14T22:32:06.635Z,54.60
2018-12-14T22:34:34.956Z,54.60
2018-12-14T22:37:03.296Z,54.60
2018-12-14T22:39:31.839Z,54.50
2018-12-14T22:42:00.172Z,54.40
2018-12-14T22:44:28.454Z,54.10
2018-12-14T22:46:56.731Z,54.20
2018-12-14T22:49:25.131Z,54.40
2018-12-14T22:51:53.978Z,54.40
2018-12-14T22:54:22.243Z,54.70
2018-12-14T22:56:50.501Z,54.60
2018-12-14T22:59:19.139Z,54.80
2018-12-14T23:01:47.633Z,54.80
2018-12-14T23:04:15.886Z,54.40
2018-12-14T23:06:44.190Z,54.30
2018-12-14T23:09:12.571Z,54.60
2018-12-14T23:11:40.831Z,54.60
2018-12-14T23:14:09.216Z,54.60
2018-12-14T23:16:37.462Z,54.60
2018-12-14T23:19:06.719Z,54.60
2018-12-14T23:21:35.070Z,54.60
2018-12-14T23:24:03.453Z,54.60
2018-12-14T23:26:31.779Z,54.90
2018-12-14T23:29:00.075Z,55.00
2018-12-14T23:31:28.339Z,55.00
2018-12-14T23:33:56.582Z,54.80
2018-12-14T23:36:24.891Z,55.70
2018-12-14T23:38:53.172Z,54.70
2018-12-14T23:41:21.435Z,54.70
2018-12-14T23:43:50.031Z,54.70
2018-12-14T23:46:18.286Z,54.60
2018-12-14T23:48:46.585Z,54.60
2018-12-14T23:51:14.904Z,54.80
2018-12-14T23:53:43.435Z,54.50
2018-12-14T23:56:11.691Z,54.50
2018-12-14T23:58:39.985Z,54.80
